createdAt,value
2019-06-25T00:00:11.275Z,3.80
2019-06-25T00:01:11.217Z,3.80
2019-06-25T00:02:11.137Z,3.80
2019-06-25T00:03:11.039Z,4.00
2019-06-25T00:04:10.999Z,4.80
2019-06-25T00:05:10.878Z,4.10
2019-06-25T00:06:10.899Z,4.70
2019-06-25T00:07:10.698Z,3.30
2019-06-25T00:08:10.594Z,4.20
2019-06-25T00:09:10.530Z,5.70
2019-06-25T00:10:10.436Z,3.70
2019-06-25T00:11:10.371Z,3.50
2019-06-25T00:12:10.264Z,3.30
2019-06-25T00:13:10.192Z,4.10
2019-06-25T00:14:10.101Z,3.80
2019-06-25T00:15:10.034Z,4.20
2019-06-25T00:16:09.949Z,4.60
2019-06-25T00:17:09.874Z,5.30
2019-06-25T00:18:09.787Z,4.80
2019-06-25T00:19:09.701Z,3.60
2019-06-25T00:20:09.674Z,3.90
2019-06-25T00:21:09.517Z,3.50
2019-06-25T00:22:09.439Z,4.50
2019-06-25T00:23:09.374Z,5.00
2019-06-25T00:24:09.277Z,4.40
2019-06-25T00:25:09.206Z,3.50
2019-06-25T00:26:09.107Z,4.50
2019-06-25T00:27:09.039Z,4.90
2019-06-25T00:28:08.930Z,5.00
2019-06-25T00:29:08.874Z,5.20
2019-06-25T00:30:08.791Z,5.40
2019-06-25T00:31:08.696Z,5.40
2019-06-25T00:32:08.602Z,5.70
2019-06-25T00:33:08.535Z,4.00
2019-06-25T00:34:08.456Z,4.70
2019-06-25T00:35:08.363Z,4.80
2019-06-25T00:36:08.300Z,4.30
2019-06-25T00:37:08.206Z,6.50
2019-06-25T00:38:08.158Z,4.80
2019-06-25T00:39:08.018Z,5.50
2019-06-25T00:40:07.951Z,5.40
2019-06-25T00:41:07.882Z,5.00
2019-06-25T00:42:07.780Z,5.10
2019-06-25T00:43:07.741Z,5.50
2019-06-25T00:44:07.692Z,3.90
2019-06-25T00:45:07.560Z,3.90
2019-06-25T00:46:07.454Z,6.60
2019-06-25T00:47:07.369Z,6.00
2019-06-25T00:48:07.278Z,4.70
2019-06-25T00:49:07.174Z,4.80
2019-06-25T00:50:07.125Z,5.40
2019-06-25T00:51:07.030Z,4.70
2019-06-25T00:52:06.946Z,4.40
2019-06-25T00:53:06.852Z,4.90
2019-06-25T00:54:06.778Z,4.50
2019-06-25T00:55:06.731Z,5.80
2019-06-25T00:56:06.640Z,4.80
2019-06-25T00:57:06.546Z,5.40
2019-06-25T00:58:06.434Z,5.90
2019-06-25T00:59:06.383Z,5.10
2019-06-25T01:00:13.158Z,5.30
2019-06-25T01:01:06.170Z,6.50
2019-06-25T01:02:06.145Z,3.90
2019-06-25T01:03:06.044Z,4.30
2019-06-25T01:04:05.950Z,4.20
2019-06-25T01:05:05.867Z,4.90
2019-06-25T01:06:05.800Z,4.70
2019-06-25T01:07:05.688Z,4.00
2019-06-25T01:08:05.588Z,3.90
2019-06-25T01:09:05.515Z,5.70
2019-06-25T01:10:05.427Z,5.30
2019-06-25T01:11:05.334Z,5.00
2019-06-25T01:12:05.283Z,3.90
2019-06-25T01:13:05.185Z,4.10
2019-06-25T01:14:05.139Z,4.40
2019-06-25T01:15:05.067Z,5.20
2019-06-25T01:16:04.999Z,5.20
2019-06-25T01:17:04.896Z,3.80
2019-06-25T01:18:04.765Z,4.80
2019-06-25T01:19:04.677Z,4.60
2019-06-25T01:20:04.603Z,3.80
2019-06-25T01:21:04.505Z,4.10
2019-06-25T01:22:04.453Z,3.20
2019-06-25T01:23:04.365Z,5.00
2019-06-25T01:24:04.257Z,3.90
2019-06-25T01:25:04.185Z,5.70
2019-06-25T01:26:04.091Z,4.00
2019-06-25T01:27:04.018Z,3.40
2019-06-25T01:28:03.965Z,4.20
2019-06-25T01:29:03.846Z,6.50
2019-06-25T01:30:03.785Z,3.70
2019-06-25T01:31:03.695Z,4.00
2019-06-25T01:32:03.597Z,3.60
2019-06-25T01:33:03.548Z,4.30
2019-06-25T01:34:03.429Z,4.90
2019-06-25T01:35:03.330Z,3.40
2019-06-25T01:36:03.265Z,5.50
2019-06-25T01:37:03.207Z,3.50
2019-06-25T01:38:03.090Z,3.40
2019-06-25T01:39:03.015Z,4.30
2019-06-25T01:40:02.930Z,3.30
2019-06-25T01:41:02.831Z,3.40
2019-06-25T01:42:02.745Z,3.70
2019-06-25T01:43:02.676Z,3.40
2019-06-25T01:44:02.584Z,3.30
2019-06-25T01:45:02.503Z,3.90
2019-06-25T01:46:02.431Z,3.50
2019-06-25T01:47:02.337Z,3.30
2019-06-25T01:48:02.253Z,3.10
2019-06-25T01:49:02.186Z,4.20
2019-06-25T01:50:02.083Z,3.30
2019-06-25T01:51:02.006Z,3.90
2019-06-25T01:52:01.909Z,3.40
2019-06-25T01:53:02.181Z,3.80
2019-06-25T01:54:01.763Z,3.50
2019-06-25T01:55:01.698Z,3.50
2019-06-25T01:56:01.615Z,3.80
2019-06-25T01:57:01.532Z,3.80
2019-06-25T01:58:01.442Z,3.30
2019-06-25T01:59:01.334Z,4.90
2019-06-25T02:00:01.251Z,3.80
2019-06-25T02:01:01.156Z,5.00
2019-06-25T02:02:01.115Z,3.60
2019-06-25T02:03:00.986Z,4.50
2019-06-25T02:04:00.899Z,3.60
2019-06-25T02:05:00.847Z,3.80
2019-06-25T02:06:00.741Z,4.70
2019-06-25T02:07:00.696Z,5.00
2019-06-25T02:08:00.566Z,4.00
2019-06-25T02:09:00.525Z,4.70
2019-06-25T02:10:00.409Z,3.40
2019-06-25T02:11:00.314Z,4.40
2019-06-25T02:12:00.252Z,4.30
2019-06-25T02:13:00.157Z,3.50
2019-06-25T02:14:00.079Z,3.90
2019-06-25T02:15:00.019Z,5.20
2019-06-25T02:15:59.897Z,3.30
2019-06-25T02:16:59.819Z,4.70
2019-06-25T02:17:59.734Z,4.10
2019-06-25T02:18:59.649Z,4.40
2019-06-25T02:19:59.576Z,5.30
2019-06-25T02:20:59.498Z,3.60
2019-06-25T02:21:59.389Z,3.90
2019-06-25T02:22:59.312Z,4.20
2019-06-25T02:23:59.230Z,4.00
2019-06-25T02:24:59.144Z,3.70
2019-06-25T02:25:59.043Z,5.20
2019-06-25T02:26:58.978Z,3.90
2019-06-25T02:27:58.890Z,4.40
2019-06-25T02:28:58.844Z,4.00
2019-06-25T02:29:58.754Z,4.00
2019-06-25T02:31:07.535Z,5.30
2019-06-25T02:31:58.553Z,4.80
2019-06-25T02:32:58.494Z,3.70
2019-06-25T02:33:58.442Z,3.50
2019-06-25T02:34:58.335Z,5.40
2019-06-25T02:35:58.228Z,4.10
2019-06-25T02:36:58.121Z,4.80
2019-06-25T02:37:58.046Z,3.60
2019-06-25T02:38:57.980Z,4.30
2019-06-25T02:39:57.884Z,4.80
2019-06-25T02:40:57.814Z,3.90
2019-06-25T02:41:57.722Z,3.80
2019-06-25T02:42:57.627Z,4.00
2019-06-25T02:43:57.564Z,4.10
2019-06-25T02:44:57.467Z,4.10
2019-06-25T02:45:57.418Z,3.90
2019-06-25T02:46:57.284Z,5.10
2019-06-25T02:47:57.211Z,3.90
2019-06-25T02:48:57.142Z,3.50
2019-06-25T02:49:57.060Z,3.60
2019-06-25T02:50:56.960Z,4.30
2019-06-25T02:51:56.875Z,3.70
2019-06-25T02:52:56.805Z,5.10
2019-06-25T02:53:56.708Z,4.00
2019-06-25T02:54:56.614Z,3.80
2019-06-25T02:55:56.551Z,4.10
2019-06-25T02:56:56.514Z,3.90
2019-06-25T02:57:56.378Z,4.40
2019-06-25T02:58:56.272Z,3.70
2019-06-25T02:59:56.200Z,4.40
2019-06-25T03:00:56.115Z,4.20
2019-06-25T03:01:56.020Z,5.40
2019-06-25T03:02:55.937Z,4.00
2019-06-25T03:03:55.873Z,3.80
2019-06-25T03:04:55.800Z,4.40
2019-06-25T03:05:55.746Z,3.90
2019-06-25T03:06:55.605Z,4.50
2019-06-25T03:07:55.534Z,3.90
2019-06-25T03:08:55.445Z,5.50
2019-06-25T03:09:55.349Z,4.20
2019-06-25T03:10:55.300Z,5.90
2019-06-25T03:11:55.176Z,4.10
2019-06-25T03:12:55.093Z,3.60
2019-06-25T03:13:55.044Z,3.60
2019-06-25T03:14:54.946Z,4.40
2019-06-25T03:15:54.858Z,5.90
2019-06-25T03:16:54.778Z,4.20
2019-06-25T03:17:54.701Z,4.90
2019-06-25T03:18:54.595Z,6.10
2019-06-25T03:19:54.559Z,4.00
2019-06-25T03:20:54.444Z,6.90
2019-06-25T03:21:54.351Z,4.10
2019-06-25T03:22:54.259Z,4.10
2019-06-25T03:23:54.195Z,4.60
2019-06-25T03:24:54.102Z,4.00
2019-06-25T03:25:54.028Z,4.60
2019-06-25T03:26:53.924Z,4.10
2019-06-25T03:27:53.865Z,4.70
2019-06-25T03:28:53.759Z,5.80
2019-06-25T03:29:53.691Z,5.50
2019-06-25T03:30:53.594Z,4.20
2019-06-25T03:32:06.402Z,4.30
2019-06-25T03:32:53.547Z,5.30
2019-06-25T03:33:53.337Z,4.10
2019-06-25T03:34:53.261Z,5.10
2019-06-25T03:35:53.199Z,5.40
2019-06-25T03:36:53.092Z,3.90
2019-06-25T03:37:53.021Z,4.00
2019-06-25T03:38:52.917Z,8.00
2019-06-25T03:39:52.900Z,5.30
2019-06-25T03:40:52.736Z,4.10
2019-06-25T03:41:52.663Z,4.40
2019-06-25T03:42:52.574Z,4.40
2019-06-25T03:43:52.505Z,4.90
2019-06-25T03:44:52.429Z,5.10
2019-06-25T03:45:52.342Z,5.10
2019-06-25T03:46:52.259Z,5.50
2019-06-25T03:47:52.151Z,4.20
2019-06-25T03:48:52.092Z,4.20
2019-06-25T03:49:52.016Z,4.10
2019-06-25T03:50:51.914Z,4.40
2019-06-25T03:51:51.849Z,5.80
2019-06-25T03:52:51.740Z,4.00
2019-06-25T03:53:51.648Z,4.40
2019-06-25T03:54:51.617Z,5.30
2019-06-25T03:55:51.530Z,5.10
2019-06-25T03:56:51.394Z,5.30
2019-06-25T03:57:51.355Z,4.40
2019-06-25T03:58:51.240Z,4.40
2019-06-25T03:59:51.147Z,4.70
2019-06-25T04:00:51.092Z,4.70
2019-06-25T04:01:50.983Z,4.70
2019-06-25T04:02:50.902Z,5.10
2019-06-25T04:03:50.797Z,4.20
2019-06-25T04:04:50.722Z,4.30
2019-06-25T04:05:50.687Z,4.40
2019-06-25T04:06:50.574Z,4.30
2019-06-25T04:07:50.519Z,4.10
2019-06-25T04:08:50.398Z,4.40
2019-06-25T04:09:50.328Z,8.40
2019-06-25T04:10:50.224Z,5.90
2019-06-25T04:11:52.677Z,4.20
2019-06-25T04:12:50.052Z,5.90
2019-06-25T04:13:49.968Z,7.10
2019-06-25T04:14:49.886Z,11.00
2019-06-25T04:15:49.816Z,18.80
2019-06-25T04:16:49.764Z,7.10
2019-06-25T04:17:49.707Z,7.30
2019-06-25T04:18:49.629Z,5.70
2019-06-25T04:19:49.612Z,6.10
2019-06-25T04:20:49.394Z,4.70
2019-06-25T04:21:49.322Z,6.70
2019-06-25T04:22:49.214Z,4.30
2019-06-25T04:23:49.166Z,4.80
2019-06-25T04:24:49.044Z,4.30
2019-06-25T04:25:49.005Z,4.10
2019-06-25T04:26:48.900Z,4.20
2019-06-25T04:27:48.778Z,4.60
2019-06-25T04:28:48.708Z,5.50
2019-06-25T04:29:48.617Z,4.10
2019-06-25T04:30:48.569Z,4.80
2019-06-25T04:31:48.480Z,4.90
2019-06-25T04:32:48.382Z,4.50
2019-06-25T04:33:48.308Z,5.10
2019-06-25T04:34:48.217Z,4.60
2019-06-25T04:35:48.135Z,4.40
2019-06-25T04:36:48.033Z,4.60
2019-06-25T04:37:48.000Z,4.80
2019-06-25T04:38:47.889Z,4.80
2019-06-25T04:39:47.803Z,4.70
2019-06-25T04:40:47.717Z,4.50
2019-06-25T04:41:47.637Z,4.40
2019-06-25T04:42:47.561Z,5.30
2019-06-25T04:43:47.481Z,4.80
2019-06-25T04:44:47.393Z,5.40
2019-06-25T04:45:47.304Z,6.20
2019-06-25T04:46:47.247Z,4.50
2019-06-25T04:47:47.123Z,4.60
2019-06-25T04:48:47.042Z,4.40
2019-06-25T04:49:46.981Z,4.20
2019-06-25T04:50:46.899Z,4.10
2019-06-25T04:51:46.781Z,4.10
2019-06-25T04:52:46.699Z,5.60
2019-06-25T04:53:46.636Z,6.00
2019-06-25T04:54:46.541Z,5.50
2019-06-25T04:55:46.445Z,4.70
2019-06-25T04:56:46.347Z,4.90
2019-06-25T04:57:46.282Z,4.10
2019-06-25T04:58:46.211Z,5.10
2019-06-25T04:59:46.109Z,4.60
2019-06-25T05:00:46.032Z,5.30
2019-06-25T05:01:45.946Z,5.20
2019-06-25T05:02:50.085Z,3.90
2019-06-25T05:03:45.785Z,5.10
2019-06-25T05:04:45.687Z,3.90
2019-06-25T05:05:45.635Z,5.10
2019-06-25T05:06:45.534Z,6.60
2019-06-25T05:07:45.452Z,4.70
2019-06-25T05:08:45.378Z,4.00
2019-06-25T05:09:45.314Z,4.10
2019-06-25T05:10:45.189Z,3.90
2019-06-25T05:11:45.111Z,4.20
2019-06-25T05:12:45.031Z,4.20
2019-06-25T05:13:44.955Z,5.70
2019-06-25T05:14:44.869Z,3.80
2019-06-25T05:15:44.784Z,4.30
2019-06-25T05:16:44.686Z,4.50
2019-06-25T05:17:44.628Z,5.90
2019-06-25T05:18:44.544Z,4.30
2019-06-25T05:19:44.450Z,4.10
2019-06-25T05:20:44.372Z,6.60
2019-06-25T05:21:44.284Z,4.50
2019-06-25T05:22:44.207Z,4.70
2019-06-25T05:23:44.114Z,4.30
2019-06-25T05:24:44.029Z,3.90
2019-06-25T05:25:43.946Z,12.50
2019-06-25T05:26:43.873Z,12.50
2019-06-25T05:27:43.769Z,13.20
2019-06-25T05:28:43.755Z,14.10
2019-06-25T05:29:43.610Z,14.20
2019-06-25T05:30:43.520Z,15.20
2019-06-25T05:31:43.428Z,14.20
2019-06-25T05:32:43.388Z,13.60
2019-06-25T05:33:43.273Z,11.00
2019-06-25T05:34:43.209Z,9.90
2019-06-25T05:35:43.095Z,10.30
2019-06-25T05:36:43.032Z,11.10
2019-06-25T05:37:42.971Z,8.90
2019-06-25T05:38:42.866Z,11.20
2019-06-25T05:39:42.794Z,9.90
2019-06-25T05:40:42.744Z,10.10
2019-06-25T05:41:42.626Z,10.00
2019-06-25T05:42:42.538Z,10.10
2019-06-25T05:43:42.446Z,9.30
2019-06-25T05:44:42.357Z,8.00
2019-06-25T05:45:42.304Z,7.70
2019-06-25T05:46:42.218Z,7.50
2019-06-25T05:47:42.112Z,7.40
2019-06-25T05:48:42.042Z,8.40
2019-06-25T05:49:41.955Z,8.60
2019-06-25T05:50:41.858Z,6.20
2019-06-25T05:51:41.789Z,8.40
2019-06-25T05:52:41.696Z,6.50
2019-06-25T05:53:41.619Z,6.50
2019-06-25T05:54:41.540Z,8.90
2019-06-25T05:55:41.482Z,10.50
2019-06-25T05:56:41.376Z,7.40
2019-06-25T05:57:41.312Z,9.60
2019-06-25T05:58:41.196Z,8.00
2019-06-25T05:59:41.131Z,7.70
2019-06-25T06:00:41.041Z,10.70
2019-06-25T06:01:40.961Z,8.40
2019-06-25T06:02:40.880Z,7.20
2019-06-25T06:03:40.815Z,7.50
2019-06-25T06:04:40.725Z,6.90
2019-06-25T06:05:40.630Z,10.80
2019-06-25T06:06:40.556Z,7.80
2019-06-25T06:07:40.449Z,8.70
2019-06-25T06:08:40.379Z,7.60
2019-06-25T06:09:40.333Z,6.80
2019-06-25T06:10:40.235Z,5.00
2019-06-25T06:11:40.119Z,6.90
2019-06-25T06:12:40.069Z,4.60
2019-06-25T06:13:39.989Z,5.90
2019-06-25T06:14:39.960Z,5.00
2019-06-25T06:15:39.837Z,5.20
2019-06-25T06:16:39.712Z,4.50
2019-06-25T06:17:39.645Z,6.10
2019-06-25T06:18:39.569Z,7.20
2019-06-25T06:19:39.484Z,4.40
2019-06-25T06:20:39.404Z,6.70
2019-06-25T06:21:39.338Z,4.90
2019-06-25T06:22:39.504Z,5.20
2019-06-25T06:23:39.185Z,5.20
2019-06-25T06:24:39.066Z,4.50
2019-06-25T06:25:38.999Z,4.00
2019-06-25T06:26:38.895Z,6.40
2019-06-25T06:27:38.817Z,7.10
2019-06-25T06:28:38.759Z,8.80
2019-06-25T06:29:38.640Z,8.90
2019-06-25T06:30:38.589Z,7.10
2019-06-25T06:31:38.484Z,6.30
2019-06-25T06:32:38.411Z,13.20
2019-06-25T06:33:38.346Z,7.50
2019-06-25T06:34:38.244Z,8.40
2019-06-25T06:35:38.204Z,8.00
2019-06-25T06:36:38.119Z,12.10
2019-06-25T06:37:38.024Z,12.60
2019-06-25T06:38:37.915Z,8.40
2019-06-25T06:39:37.835Z,8.80
2019-06-25T06:40:37.776Z,9.70
2019-06-25T06:41:37.671Z,9.70
2019-06-25T06:42:37.603Z,8.40
2019-06-25T06:43:37.513Z,6.30
2019-06-25T06:44:37.406Z,8.50
2019-06-25T06:45:37.377Z,6.60
2019-06-25T06:46:37.304Z,9.30
2019-06-25T06:47:37.207Z,5.70
2019-06-25T06:48:37.131Z,9.40
2019-06-25T06:49:37.026Z,7.50
2019-06-25T06:50:36.930Z,6.70
2019-06-25T06:51:36.861Z,6.10
2019-06-25T06:52:36.766Z,6.50
2019-06-25T06:53:36.749Z,7.20
2019-06-25T06:54:36.638Z,3.50
2019-06-25T06:55:36.541Z,6.10
2019-06-25T06:56:36.461Z,4.90
2019-06-25T06:57:36.406Z,4.00
2019-06-25T06:58:36.269Z,6.00
2019-06-25T06:59:36.219Z,3.80
2019-06-25T07:00:36.164Z,4.40
2019-06-25T07:01:36.042Z,3.80
2019-06-25T07:02:35.966Z,6.10
2019-06-25T07:03:51.649Z,4.40
2019-06-25T07:04:35.807Z,4.10
2019-06-25T07:05:35.696Z,4.90
2019-06-25T07:06:35.618Z,8.60
2019-06-25T07:07:35.530Z,4.10
2019-06-25T07:08:35.471Z,4.00
2019-06-25T07:09:37.215Z,6.20
2019-06-25T07:10:35.318Z,5.00
2019-06-25T07:11:35.244Z,5.10
2019-06-25T07:12:35.212Z,5.10
2019-06-25T07:13:35.096Z,4.00
2019-06-25T07:14:34.967Z,6.30
2019-06-25T07:15:34.922Z,4.00
2019-06-25T07:16:34.852Z,4.20
2019-06-25T07:17:34.776Z,4.00
2019-06-25T07:18:35.506Z,5.80
2019-06-25T07:19:34.580Z,4.10
2019-06-25T07:20:34.477Z,5.60
2019-06-25T07:21:34.417Z,5.10
2019-06-25T07:22:34.353Z,5.30
2019-06-25T07:23:34.268Z,5.00
2019-06-25T07:24:34.195Z,5.40
2019-06-25T07:25:34.070Z,5.10
2019-06-25T07:26:33.987Z,4.60
2019-06-25T07:27:38.052Z,4.70
2019-06-25T07:28:34.021Z,4.90
2019-06-25T07:29:33.771Z,5.80
2019-06-25T07:30:33.677Z,5.50
2019-06-25T07:31:33.640Z,5.70
2019-06-25T07:32:33.528Z,6.70
2019-06-25T07:33:34.094Z,5.30
2019-06-25T07:34:33.399Z,6.30
2019-06-25T07:35:33.273Z,5.70
2019-06-25T07:36:33.330Z,5.80
2019-06-25T07:37:33.106Z,4.40
2019-06-25T07:38:33.029Z,6.00
2019-06-25T07:39:32.964Z,5.60
2019-06-25T07:40:32.859Z,6.50
2019-06-25T07:41:32.767Z,4.70
2019-06-25T07:42:32.736Z,6.70
2019-06-25T07:43:32.634Z,4.40
2019-06-25T07:44:32.588Z,4.90
2019-06-25T07:45:32.471Z,7.00
2019-06-25T07:46:32.384Z,4.20
2019-06-25T07:47:32.524Z,7.60
2019-06-25T07:48:32.234Z,4.10
2019-06-25T07:49:32.130Z,5.90
2019-06-25T07:50:32.068Z,6.30
2019-06-25T07:51:31.987Z,5.80
2019-06-25T07:52:31.905Z,5.40
2019-06-25T07:53:31.826Z,4.80
2019-06-25T07:54:31.742Z,6.40
2019-06-25T07:55:31.659Z,5.10
2019-06-25T07:56:36.571Z,4.60
2019-06-25T07:57:31.504Z,8.30
2019-06-25T07:58:31.430Z,7.70
2019-06-25T07:59:31.332Z,9.00
2019-06-25T08:00:31.284Z,9.70
2019-06-25T08:01:31.184Z,5.30
2019-06-25T08:02:31.095Z,7.40
2019-06-25T08:03:30.994Z,4.30
2019-06-25T08:04:30.939Z,4.30
2019-06-25T08:05:30.862Z,7.40
2019-06-25T08:06:30.774Z,5.70
2019-06-25T08:07:30.739Z,7.30
2019-06-25T08:08:30.620Z,4.60
2019-06-25T08:09:30.569Z,4.70
2019-06-25T08:10:30.446Z,4.40
2019-06-25T08:11:30.369Z,4.00
2019-06-25T08:12:30.280Z,5.50
2019-06-25T08:13:30.211Z,5.90
2019-06-25T08:14:30.193Z,6.10
2019-06-25T08:15:30.099Z,5.80
2019-06-25T08:16:29.978Z,4.10
2019-06-25T08:17:29.887Z,5.70
2019-06-25T08:18:29.804Z,4.60
2019-06-25T08:19:29.726Z,4.10
2019-06-25T08:20:29.665Z,5.10
2019-06-25T08:21:29.595Z,5.30
2019-06-25T08:22:29.476Z,5.60
2019-06-25T08:23:29.403Z,6.60
2019-06-25T08:24:29.352Z,4.00
2019-06-25T08:25:29.237Z,4.00
2019-06-25T08:26:29.171Z,3.30
2019-06-25T08:27:29.111Z,3.40
2019-06-25T08:28:28.996Z,4.00
2019-06-25T08:29:28.929Z,3.80
2019-06-25T08:30:28.837Z,3.80
2019-06-25T08:31:28.768Z,4.00
2019-06-25T08:32:28.695Z,4.80
2019-06-25T08:33:28.665Z,3.90
2019-06-25T08:34:41.421Z,3.80
2019-06-25T08:35:28.578Z,3.40
2019-06-25T08:36:28.363Z,2.70
2019-06-25T08:37:28.303Z,3.50
2019-06-25T08:38:28.223Z,8.40
2019-06-25T08:39:28.131Z,5.10
2019-06-25T08:40:28.071Z,5.70
2019-06-25T08:41:27.966Z,3.40
2019-06-25T08:42:27.881Z,3.00
2019-06-25T08:43:30.311Z,3.40
2019-06-25T08:44:27.889Z,2.90
2019-06-25T08:45:27.677Z,3.90
2019-06-25T08:46:27.595Z,4.20
2019-06-25T08:47:27.498Z,3.00
2019-06-25T08:48:27.428Z,6.60
2019-06-25T08:49:27.370Z,4.60
2019-06-25T08:50:27.252Z,2.80
2019-06-25T08:51:27.164Z,3.00
2019-06-25T08:52:27.100Z,2.70
2019-06-25T08:53:27.013Z,3.20
2019-06-25T08:54:26.954Z,3.30
2019-06-25T08:55:26.860Z,3.00
2019-06-25T08:56:26.773Z,3.10
2019-06-25T08:57:26.717Z,2.50
2019-06-25T08:58:26.615Z,2.80
2019-06-25T08:59:26.564Z,2.80
2019-06-25T09:00:26.508Z,3.40
2019-06-25T09:01:26.405Z,3.10
2019-06-25T09:02:26.317Z,3.20
2019-06-25T09:03:26.221Z,4.20
2019-06-25T09:04:26.149Z,2.60
2019-06-25T09:05:26.063Z,2.90
2019-06-25T09:06:25.974Z,2.90
2019-06-25T09:07:25.915Z,2.70
2019-06-25T09:08:25.839Z,2.60
2019-06-25T09:09:25.750Z,3.20
2019-06-25T09:10:25.681Z,3.10
2019-06-25T09:11:25.607Z,2.40
2019-06-25T09:12:25.542Z,3.20
2019-06-25T09:13:25.438Z,2.60
2019-06-25T09:14:25.362Z,2.50
2019-06-25T09:15:25.304Z,2.70
2019-06-25T09:16:25.209Z,3.80
2019-06-25T09:17:25.112Z,2.90
2019-06-25T09:18:25.033Z,4.00
2019-06-25T09:19:24.994Z,3.20
2019-06-25T09:20:24.894Z,2.70
2019-06-25T09:21:24.824Z,2.60
2019-06-25T09:22:24.736Z,2.50
2019-06-25T09:23:24.650Z,2.60
2019-06-25T09:24:24.582Z,3.50
2019-06-25T09:25:24.503Z,2.70
2019-06-25T09:26:24.423Z,2.60
2019-06-25T09:27:24.332Z,6.20
2019-06-25T09:28:24.244Z,2.80
2019-06-25T09:29:24.208Z,3.90
2019-06-25T09:30:24.125Z,2.80
2019-06-25T09:31:24.042Z,2.60
2019-06-25T09:32:23.946Z,3.10
2019-06-25T09:33:23.898Z,3.30
2019-06-25T09:34:23.788Z,3.30
2019-06-25T09:35:23.737Z,3.80
2019-06-25T09:36:23.635Z,3.50
2019-06-25T09:37:23.563Z,4.40
2019-06-25T09:38:23.486Z,4.10
2019-06-25T09:39:23.405Z,4.80
2019-06-25T09:40:23.370Z,4.40
2019-06-25T09:41:23.250Z,5.20
2019-06-25T09:42:23.186Z,3.80
2019-06-25T09:43:23.086Z,3.50
2019-06-25T09:44:23.007Z,3.70
2019-06-25T09:45:22.981Z,4.30
2019-06-25T09:46:22.850Z,5.10
2019-06-25T09:47:22.772Z,3.70
2019-06-25T09:48:22.718Z,4.50
2019-06-25T09:49:22.605Z,4.80
2019-06-25T09:50:22.540Z,4.10
2019-06-25T09:51:22.450Z,3.50
2019-06-25T09:52:22.387Z,3.70
2019-06-25T09:53:22.400Z,4.20
2019-06-25T09:54:22.228Z,3.70
2019-06-25T09:55:22.154Z,4.50
2019-06-25T09:56:22.059Z,3.70
2019-06-25T09:57:22.008Z,5.30
2019-06-25T09:58:21.893Z,3.60
2019-06-25T09:59:21.838Z,3.50
2019-06-25T10:00:21.743Z,3.60
2019-06-25T10:01:26.344Z,5.10
2019-06-25T10:02:21.601Z,5.00
2019-06-25T10:03:21.725Z,4.50
2019-06-25T10:04:21.489Z,3.20
2019-06-25T10:05:31.008Z,3.50
2019-06-25T10:06:21.301Z,3.60
2019-06-25T10:07:21.216Z,3.40
2019-06-25T10:08:21.153Z,3.60
2019-06-25T10:09:21.075Z,3.60
2019-06-25T10:10:20.975Z,3.30
2019-06-25T10:11:20.890Z,4.60
2019-06-25T10:12:20.824Z,3.20
2019-06-25T10:13:20.754Z,3.30
2019-06-25T10:14:20.667Z,3.40
2019-06-25T10:15:20.600Z,3.50
2019-06-25T10:16:20.514Z,4.60
2019-06-25T10:17:20.453Z,4.20
2019-06-25T10:18:20.369Z,4.60
2019-06-25T10:19:20.279Z,3.90
2019-06-25T10:20:20.187Z,3.00
2019-06-25T10:21:20.153Z,5.10
2019-06-25T10:22:20.058Z,4.00
2019-06-25T10:23:20.011Z,3.50
2019-06-25T10:24:19.877Z,2.90
2019-06-25T10:25:19.812Z,4.20
2019-06-25T10:26:19.734Z,5.30
2019-06-25T10:27:19.705Z,2.70
2019-06-25T10:28:29.649Z,2.80
2019-06-25T10:29:19.517Z,3.00
2019-06-25T10:30:19.450Z,2.80
2019-06-25T10:31:19.351Z,3.90
2019-06-25T10:32:19.326Z,3.90
2019-06-25T10:33:19.294Z,3.80
2019-06-25T10:34:19.105Z,2.70
2019-06-25T10:35:19.086Z,5.20
2019-06-25T10:36:18.985Z,4.40
2019-06-25T10:37:18.873Z,3.40
2019-06-25T10:38:18.794Z,2.70
2019-06-25T10:39:18.755Z,2.60
2019-06-25T10:40:18.662Z,6.00
2019-06-25T10:41:18.567Z,2.60
2019-06-25T10:42:18.495Z,2.90
2019-06-25T10:43:18.425Z,2.20
2019-06-25T10:44:18.358Z,2.30
2019-06-25T10:45:18.306Z,3.00
2019-06-25T10:46:18.211Z,1.90
2019-06-25T10:47:18.113Z,2.20
2019-06-25T10:48:22.039Z,2.40
2019-06-25T10:49:17.936Z,2.00
2019-06-25T10:50:17.885Z,2.20
2019-06-25T10:51:17.811Z,2.00
2019-06-25T10:52:17.725Z,3.00
2019-06-25T10:53:17.653Z,3.50
2019-06-25T10:54:17.567Z,1.90
2019-06-25T10:55:17.516Z,4.10
2019-06-25T10:56:17.475Z,2.80
2019-06-25T10:57:17.388Z,2.60
2019-06-25T10:58:17.263Z,2.50
2019-06-25T10:59:17.207Z,1.70
2019-06-25T11:00:17.114Z,4.80
2019-06-25T11:01:17.031Z,2.10
2019-06-25T11:02:16.971Z,4.10
2019-06-25T11:03:16.892Z,2.20
2019-06-25T11:04:16.837Z,3.80
2019-06-25T11:05:16.722Z,1.80
2019-06-25T11:06:16.640Z,3.40
2019-06-25T11:07:16.573Z,2.60
2019-06-25T11:08:16.511Z,2.40
2019-06-25T11:09:16.420Z,1.70
2019-06-25T11:10:16.345Z,2.80
2019-06-25T11:11:16.302Z,2.00
2019-06-25T11:12:16.208Z,2.10
2019-06-25T11:13:16.133Z,2.90
2019-06-25T11:14:16.045Z,2.70
2019-06-25T11:15:15.969Z,1.90
2019-06-25T11:16:15.874Z,3.30
2019-06-25T11:17:15.815Z,2.10
2019-06-25T11:18:15.740Z,2.10
2019-06-25T11:19:15.662Z,4.60
2019-06-25T11:20:15.602Z,3.50
2019-06-25T11:21:15.525Z,2.40
2019-06-25T11:22:15.452Z,2.30
2019-06-25T11:23:15.363Z,3.80
2019-06-25T11:24:15.274Z,3.10
2019-06-25T11:25:15.187Z,2.00
2019-06-25T11:26:22.709Z,1.80
2019-06-25T11:27:15.085Z,2.60
2019-06-25T11:28:14.977Z,2.20
2019-06-25T11:29:14.889Z,1.90
2019-06-25T11:30:14.823Z,2.00
2019-06-25T11:31:14.752Z,2.70
2019-06-25T11:32:14.659Z,2.00
2019-06-25T11:33:15.587Z,3.80
2019-06-25T11:34:14.543Z,2.60
2019-06-25T11:35:14.437Z,3.10
2019-06-25T11:36:21.330Z,3.00
2019-06-25T11:37:14.280Z,2.00
2019-06-25T11:38:14.198Z,1.70
2019-06-25T11:39:14.161Z,2.50
2019-06-25T11:40:14.234Z,2.50
2019-06-25T11:41:14.011Z,3.40
2019-06-25T11:42:13.955Z,2.60
2019-06-25T11:43:13.838Z,3.50
2019-06-25T11:44:13.750Z,2.30
2019-06-25T11:45:13.672Z,2.70
2019-06-25T11:46:13.602Z,2.50
2019-06-25T11:47:13.527Z,2.40
2019-06-25T11:48:13.432Z,1.60
2019-06-25T11:49:13.407Z,1.70
2019-06-25T11:50:13.299Z,1.70
2019-06-25T11:51:13.220Z,2.20
2019-06-25T11:52:13.147Z,1.80
2019-06-25T11:53:13.060Z,3.70
2019-06-25T11:54:12.993Z,6.20
2019-06-25T11:55:12.934Z,1.80
2019-06-25T11:56:12.837Z,2.10
2019-06-25T11:57:12.791Z,2.60
2019-06-25T11:58:12.706Z,1.60
2019-06-25T11:59:12.608Z,3.60
2019-06-25T12:00:12.556Z,1.90
2019-06-25T12:01:12.508Z,2.30
2019-06-25T12:02:12.437Z,4.90
2019-06-25T12:03:12.331Z,2.90
2019-06-25T12:04:12.247Z,1.80
2019-06-25T12:05:12.189Z,1.90
2019-06-25T12:06:12.121Z,1.80
2019-06-25T12:07:12.018Z,2.10
2019-06-25T12:08:11.946Z,1.80
2019-06-25T12:09:11.878Z,1.70
2019-06-25T12:10:11.779Z,3.00
2019-06-25T12:11:11.733Z,3.10
2019-06-25T12:12:11.647Z,2.20
2019-06-25T12:13:11.570Z,1.70
2019-06-25T12:14:11.489Z,1.80
2019-06-25T12:15:11.415Z,2.00
2019-06-25T12:16:11.360Z,2.00
2019-06-25T12:17:11.290Z,5.10
2019-06-25T12:18:11.191Z,1.60
2019-06-25T12:19:11.118Z,1.80
2019-06-25T12:20:11.039Z,2.10
2019-06-25T12:21:10.962Z,1.90
2019-06-25T12:22:10.893Z,2.20
2019-06-25T12:23:10.811Z,1.80
2019-06-25T12:24:10.765Z,1.80
2019-06-25T12:25:10.656Z,1.70
2019-06-25T12:26:10.589Z,1.80
2019-06-25T12:27:10.553Z,2.00
2019-06-25T12:28:10.431Z,1.90
2019-06-25T12:29:10.374Z,2.40
2019-06-25T12:30:10.303Z,3.80
2019-06-25T12:31:10.214Z,2.00
2019-06-25T12:32:10.150Z,1.90
2019-06-25T12:33:10.065Z,3.10
2019-06-25T12:34:10.023Z,2.60
2019-06-25T12:35:09.980Z,1.80
2019-06-25T12:36:09.837Z,2.10
2019-06-25T12:37:10.316Z,1.80
2019-06-25T12:38:09.719Z,1.80
2019-06-25T12:39:09.617Z,4.40
2019-06-25T12:40:09.572Z,1.70
2019-06-25T12:41:09.470Z,3.20
2019-06-25T12:42:09.393Z,1.80
2019-06-25T12:43:09.321Z,2.50
2019-06-25T12:44:09.252Z,2.30
2019-06-25T12:45:09.169Z,1.90
2019-06-25T12:46:09.114Z,2.00
2019-06-25T12:47:09.048Z,3.60
2019-06-25T12:48:08.976Z,2.20
2019-06-25T12:49:08.885Z,2.10
2019-06-25T12:50:08.827Z,3.90
2019-06-25T12:51:11.188Z,1.90
2019-06-25T12:52:08.645Z,2.20
2019-06-25T12:53:08.564Z,2.10
2019-06-25T12:54:08.574Z,2.10
2019-06-25T12:55:08.404Z,2.20
2019-06-25T12:56:08.332Z,2.40
2019-06-25T12:57:08.263Z,2.20
2019-06-25T12:58:08.179Z,2.40
2019-06-25T12:59:08.105Z,2.40
2019-06-25T13:00:08.081Z,2.10
2019-06-25T13:01:07.965Z,2.10
2019-06-25T13:02:08.825Z,2.10
2019-06-25T13:03:07.845Z,2.50
2019-06-25T13:04:07.728Z,2.20
2019-06-25T13:05:07.674Z,2.50
2019-06-25T13:06:07.591Z,2.40
2019-06-25T13:07:07.536Z,2.30
2019-06-25T13:08:07.433Z,3.70
2019-06-25T13:09:07.390Z,3.20
2019-06-25T13:10:07.317Z,2.60
2019-06-25T13:11:07.228Z,2.40
2019-06-25T13:12:07.172Z,2.20
2019-06-25T13:13:07.065Z,3.00
2019-06-25T13:14:06.992Z,2.10
2019-06-25T13:15:06.940Z,2.20
2019-06-25T13:16:06.868Z,3.20